エカテリンブルク の空港の天気 - METARとTAF

コルツォヴォ空港 ( USSS / SVX ) - ロシア エカテリンブルク
飛行場実況気象(Metar)
観測時間04/26 21:30 YEKT (04/26 16:30 UTC)
風向・風速西 3m/s
視程10km以上
天気現象
全天の4割程度の雲 雲底高度 1520m
気温2℃
湿度69%
気圧1011hPa
METARUSSS 261630Z 28003MPS 9999 SCT050CB 02/M03 Q1011 R26R/210050 TEMPO 1100 SHSNRA RMK QFE738/0984
過去の天気等 Google飛行場航空写真 Wunderground天気予報

過去48時間のMETAR

飛行場予報(TAF)
発表時間: 4/26 18:55 YEKT (4/26 13:55 UTC)
予報対象時間: 26日20時 YEKT ~ 27日20時 YEKT
風向・風速北北西 3m/s 瞬間風速 12m/s
視程6000m
天気現象弱いしゅう雨雪
全天の8割程度の雲 雲底高度 490m
全天の4割程度の積乱雲 雲底高度 610m
27日0時 YEKT ~ 27日2時 YEKT に徐々に
視程3100m
天気現象弱いしゅう雪
27日7時 YEKT ~ 27日9時 YEKT に徐々に
視程10km以上
天気現象運行に影響にある天気現象が終了
TAF USSS 261355Z 2615/2715 33003G12MPS 6000 -SHRASN BKN016 SCT020CB
BECMG 2619/2621 3100 -SHSN
BECMG 2702/2704 9999 NSW